sensor_id;sensor_type;location;lat;lon;timestamp;temperature;humidity
68177;DHT22;56478;50.982;7.032;2022-11-14T00:01:56;5.72;77.30
68177;DHT22;56478;50.982;7.032;2022-11-14T00:04:22;5.65;77.41
68177;DHT22;56478;50.982;7.032;2022-11-14T00:06:47;5.69;77.77
68177;DHT22;56478;50.982;7.032;2022-11-14T00:09:13;5.66;77.64
68177;DHT22;56478;50.982;7.032;2022-11-14T00:11:38;5.59;77.75
68177;DHT22;56478;50.982;7.032;2022-11-14T00:14:05;5.55;77.79
68177;DHT22;56478;50.982;7.032;2022-11-14T00:16:31;5.59;77.28
68177;DHT22;56478;50.982;7.032;2022-11-14T00:18:56;5.59;77.59
68177;DHT22;56478;50.982;7.032;2022-11-14T00:21:22;5.61;77.40
68177;DHT22;56478;50.982;7.032;2022-11-14T00:23:48;5.64;77.15
68177;DHT22;56478;50.982;7.032;2022-11-14T00:26:13;5.64;77.00
68177;DHT22;56478;50.982;7.032;2022-11-14T00:28:39;5.64;77.54
68177;DHT22;56478;50.982;7.032;2022-11-14T00:31:04;5.59;76.88
68177;DHT22;56478;50.982;7.032;2022-11-14T00:33:30;5.64;77.30
68177;DHT22;56478;50.982;7.032;2022-11-14T00:35:56;5.65;77.33
68177;DHT22;56478;50.982;7.032;2022-11-14T00:38:22;5.58;77.37
68177;DHT22;56478;50.982;7.032;2022-11-14T00:40:47;5.57;77.40
68177;DHT22;56478;50.982;7.032;2022-11-14T00:43:13;5.71;77.04
68177;DHT22;56478;50.982;7.032;2022-11-14T00:45:38;5.72;76.96
68177;DHT22;56478;50.982;7.032;2022-11-14T00:48:04;5.74;77.12
68177;DHT22;56478;50.982;7.032;2022-11-14T00:50:30;5.69;77.39
68177;DHT22;56478;50.982;7.032;2022-11-14T00:52:55;5.71;77.25
68177;DHT22;56478;50.982;7.032;2022-11-14T00:55:21;5.68;77.61
68177;DHT22;56478;50.982;7.032;2022-11-14T00:57:46;5.64;77.55
68177;DHT22;56478;50.982;7.032;2022-11-14T01:00:13;5.66;77.43
68177;DHT22;56478;50.982;7.032;2022-11-14T01:02:38;5.58;77.54
68177;DHT22;56478;50.982;7.032;2022-11-14T01:05:04;5.50;77.74
68177;DHT22;56478;50.982;7.032;2022-11-14T01:07:30;5.46;77.63
68177;DHT22;56478;50.982;7.032;2022-11-14T01:09:56;5.38;77.74
68177;DHT22;56478;50.982;7.032;2022-11-14T01:12:22;5.34;77.96
68177;DHT22;56478;50.982;7.032;2022-11-14T01:14:47;5.29;77.99
68177;DHT22;56478;50.982;7.032;2022-11-14T01:17:13;5.27;77.67
68177;DHT22;56478;50.982;7.032;2022-11-14T01:19:39;5.26;77.93
68177;DHT22;56478;50.982;7.032;2022-11-14T01:22:05;5.27;77.51
68177;DHT22;56478;50.982;7.032;2022-11-14T01:24:31;5.18;77.59
68177;DHT22;56478;50.982;7.032;2022-11-14T01:26:58;5.15;77.86
68177;DHT22;56478;50.982;7.032;2022-11-14T01:29:23;5.12;77.99
68177;DHT22;56478;50.982;7.032;2022-11-14T01:31:49;5.11;78.06
68177;DHT22;56478;50.982;7.032;2022-11-14T01:34:15;4.97;77.84
68177;DHT22;56478;50.982;7.032;2022-11-14T01:36:41;4.84;77.47
68177;DHT22;56478;50.982;7.032;2022-11-14T01:39:07;4.85;77.53
68177;DHT22;56478;50.982;7.032;2022-11-14T01:41:32;4.77;77.96
68177;DHT22;56478;50.982;7.032;2022-11-14T01:43:58;4.69;77.95
68177;DHT22;56478;50.982;7.032;2022-11-14T01:46:35;4.72;78.03
68177;DHT22;56478;50.982;7.032;2022-11-14T01:49:09;4.77;77.85
68177;DHT22;56478;50.982;7.032;2022-11-14T01:51:52;4.79;77.81
68177;DHT22;56478;50.982;7.032;2022-11-14T01:54:25;4.84;77.96
68177;DHT22;56478;50.982;7.032;2022-11-14T01:56:56;4.84;77.50
68177;DHT22;56478;50.982;7.032;2022-11-14T01:59:26;4.69;78.29
68177;DHT22;56478;50.982;7.032;2022-11-14T02:01:53;4.74;77.52
68177;DHT22;56478;50.982;7.032;2022-11-14T02:04:26;4.74;78.03
68177;DHT22;56478;50.982;7.032;2022-11-14T02:06:55;4.68;77.61
68177;DHT22;56478;50.982;7.032;2022-11-14T02:09:21;4.60;78.42
68177;DHT22;56478;50.982;7.032;2022-11-14T02:11:47;4.65;78.13
68177;DHT22;56478;50.982;7.032;2022-11-14T02:14:14;4.68;78.25
68177;DHT22;56478;50.982;7.032;2022-11-14T02:16:40;4.58;78.24
68177;DHT22;56478;50.982;7.032;2022-11-14T02:19:07;4.57;78.60
68177;DHT22;56478;50.982;7.032;2022-11-14T02:21:33;4.57;78.49
68177;DHT22;56478;50.982;7.032;2022-11-14T02:23:58;4.51;78.31
68177;DHT22;56478;50.982;7.032;2022-11-14T02:26:24;4.57;78.32
68177;DHT22;56478;50.982;7.032;2022-11-14T02:28:49;4.61;77.81
68177;DHT22;56478;50.982;7.032;2022-11-14T02:31:15;4.67;77.85
68177;DHT22;56478;50.982;7.032;2022-11-14T02:33:41;4.64;77.60
68177;DHT22;56478;50.982;7.032;2022-11-14T02:36:07;4.71;77.38
68177;DHT22;56478;50.982;7.032;2022-11-14T02:38:33;4.64;77.54
68177;DHT22;56478;50.982;7.032;2022-11-14T02:41:00;4.60;77.85
68177;DHT22;56478;50.982;7.032;2022-11-14T02:43:26;4.62;78.08
68177;DHT22;56478;50.982;7.032;2022-11-14T02:45:52;4.64;77.68
68177;DHT22;56478;50.982;7.032;2022-11-14T02:48:17;4.60;78.10
68177;DHT22;56478;50.982;7.032;2022-11-14T02:50:43;4.54;78.77
68177;DHT22;56478;50.982;7.032;2022-11-14T02:53:09;4.56;78.65
68177;DHT22;56478;50.982;7.032;2022-11-14T02:55:34;4.64;78.59
68177;DHT22;56478;50.982;7.032;2022-11-14T02:58:00;4.62;77.96
68177;DHT22;56478;50.982;7.032;2022-11-14T03:00:26;4.58;78.22
68177;DHT22;56478;50.982;7.032;2022-11-14T03:02:52;4.64;78.24
68177;DHT22;56478;50.982;7.032;2022-11-14T03:05:18;4.60;78.15
68177;DHT22;56478;50.982;7.032;2022-11-14T03:07:44;4.61;78.05
68177;DHT22;56478;50.982;7.032;2022-11-14T03:10:10;4.60;78.42
68177;DHT22;56478;50.982;7.032;2022-11-14T03:12:36;4.53;78.24
68177;DHT22;56478;50.982;7.032;2022-11-14T03:15:03;4.47;78.19
68177;DHT22;56478;50.982;7.032;2022-11-14T03:17:33;4.50;78.28
68177;DHT22;56478;50.982;7.032;2022-11-14T03:19:59;4.56;78.05
68177;DHT22;56478;50.982;7.032;2022-11-14T03:22:25;4.56;78.37
68177;DHT22;56478;50.982;7.032;2022-11-14T03:24:51;4.46;78.57
68177;DHT22;56478;50.982;7.032;2022-11-14T03:27:17;4.51;78.51
68177;DHT22;56478;50.982;7.032;2022-11-14T03:29:42;4.47;78.36
68177;DHT22;56478;50.982;7.032;2022-11-14T03:32:08;4.54;77.88
68177;DHT22;56478;50.982;7.032;2022-11-14T03:34:33;4.50;77.74
68177;DHT22;56478;50.982;7.032;2022-11-14T03:36:59;4.54;78.05
68177;DHT22;56478;50.982;7.032;2022-11-14T03:39:25;4.56;77.55
68177;DHT22;56478;50.982;7.032;2022-11-14T03:41:51;4.56;77.66
68177;DHT22;56478;50.982;7.032;2022-11-14T03:44:16;4.58;77.40
68177;DHT22;56478;50.982;7.032;2022-11-14T03:46:42;4.58;77.34
68177;DHT22;56478;50.982;7.032;2022-11-14T03:49:08;4.51;77.87
68177;DHT22;56478;50.982;7.032;2022-11-14T03:51:33;4.47;77.90
68177;DHT22;56478;50.982;7.032;2022-11-14T03:53:59;4.54;77.85
68177;DHT22;56478;50.982;7.032;2022-11-14T03:56:24;4.54;77.55
68177;DHT22;56478;50.982;7.032;2022-11-14T03:58:50;4.56;77.54
68177;DHT22;56478;50.982;7.032;2022-11-14T04:01:15;4.56;77.67
68177;DHT22;56478;50.982;7.032;2022-11-14T04:03:41;4.60;77.34
68177;DHT22;56478;50.982;7.032;2022-11-14T04:06:06;4.60;77.44
68177;DHT22;56478;50.982;7.032;2022-11-14T04:08:32;4.60;77.27
68177;DHT22;56478;50.982;7.032;2022-11-14T04:10:57;4.58;77.38
68177;DHT22;56478;50.982;7.032;2022-11-14T04:13:23;4.61;77.54
68177;DHT22;56478;50.982;7.032;2022-11-14T04:15:55;4.53;77.68
68177;DHT22;56478;50.982;7.032;2022-11-14T04:18:22;4.56;77.55
68177;DHT22;56478;50.982;7.032;2022-11-14T04:20:48;4.50;77.36
68177;DHT22;56478;50.982;7.032;2022-11-14T04:23:13;4.46;77.18
68177;DHT22;56478;50.982;7.032;2022-11-14T04:25:39;4.47;77.99
68177;DHT22;56478;50.982;7.032;2022-11-14T04:28:04;4.51;77.73
68177;DHT22;56478;50.982;7.032;2022-11-14T04:30:29;4.46;77.92
68177;DHT22;56478;50.982;7.032;2022-11-14T04:32:55;4.49;77.71
68177;DHT22;56478;50.982;7.032;2022-11-14T04:35:20;4.50;77.29
68177;DHT22;56478;50.982;7.032;2022-11-14T04:37:46;4.44;77.58
68177;DHT22;56478;50.982;7.032;2022-11-14T04:40:11;4.46;77.69
68177;DHT22;56478;50.982;7.032;2022-11-14T04:42:37;4.36;78.08
68177;DHT22;56478;50.982;7.032;2022-11-14T04:45:03;4.33;78.03
68177;DHT22;56478;50.982;7.032;2022-11-14T04:47:28;4.33;78.53
68177;DHT22;56478;50.982;7.032;2022-11-14T04:49:54;4.25;78.33
68177;DHT22;56478;50.982;7.032;2022-11-14T04:52:19;4.32;78.13
68177;DHT22;56478;50.982;7.032;2022-11-14T04:54:45;4.32;78.01
68177;DHT22;56478;50.982;7.032;2022-11-14T04:57:10;4.33;77.97
68177;DHT22;56478;50.982;7.032;2022-11-14T04:59:36;4.33;77.98
68177;DHT22;56478;50.982;7.032;2022-11-14T05:02:01;4.29;77.58
68177;DHT22;56478;50.982;7.032;2022-11-14T05:04:27;4.28;77.61
68177;DHT22;56478;50.982;7.032;2022-11-14T05:06:52;4.28;77.58
68177;DHT22;56478;50.982;7.032;2022-11-14T05:09:18;4.19;77.99
68177;DHT22;56478;50.982;7.032;2022-11-14T05:11:43;4.15;78.72
68177;DHT22;56478;50.982;7.032;2022-11-14T05:14:09;4.09;78.61
68177;DHT22;56478;50.982;7.032;2022-11-14T05:16:34;4.06;79.00
68177;DHT22;56478;50.982;7.032;2022-11-14T05:19:00;4.06;79.03
68177;DHT22;56478;50.982;7.032;2022-11-14T05:21:26;4.05;78.93
68177;DHT22;56478;50.982;7.032;2022-11-14T05:23:51;3.95;78.95
68177;DHT22;56478;50.982;7.032;2022-11-14T05:26:18;3.99;79.13
68177;DHT22;56478;50.982;7.032;2022-11-14T05:28:44;4.02;78.71
68177;DHT22;56478;50.982;7.032;2022-11-14T05:31:12;4.08;78.74
68177;DHT22;56478;50.982;7.032;2022-11-14T05:33:38;4.06;79.15
68177;DHT22;56478;50.982;7.032;2022-11-14T05:36:05;4.05;79.45
68177;DHT22;56478;50.982;7.032;2022-11-14T05:38:32;4.08;79.12
68177;DHT22;56478;50.982;7.032;2022-11-14T05:40:58;4.02;79.37
68177;DHT22;56478;50.982;7.032;2022-11-14T05:43:23;4.02;79.59
68177;DHT22;56478;50.982;7.032;2022-11-14T05:45:49;3.99;79.71
68177;DHT22;56478;50.982;7.032;2022-11-14T05:48:14;4.03;79.22
68177;DHT22;56478;50.982;7.032;2022-11-14T05:50:40;4.01;79.37
68177;DHT22;56478;50.982;7.032;2022-11-14T05:53:06;4.05;78.78
68177;DHT22;56478;50.982;7.032;2022-11-14T05:55:31;4.05;78.62
68177;DHT22;56478;50.982;7.032;2022-11-14T05:57:57;4.03;78.66
68177;DHT22;56478;50.982;7.032;2022-11-14T06:00:24;4.09;78.61
68177;DHT22;56478;50.982;7.032;2022-11-14T06:02:54;4.08;78.53
68177;DHT22;56478;50.982;7.032;2022-11-14T06:05:20;4.02;78.73
68177;DHT22;56478;50.982;7.032;2022-11-14T06:07:46;4.03;78.72
68177;DHT22;56478;50.982;7.032;2022-11-14T06:10:12;4.06;78.64
68177;DHT22;56478;50.982;7.032;2022-11-14T06:12:38;4.03;78.61
68177;DHT22;56478;50.982;7.032;2022-11-14T06:15:04;3.95;78.24
68177;DHT22;56478;50.982;7.032;2022-11-14T06:17:30;3.98;78.44
68177;DHT22;56478;50.982;7.032;2022-11-14T06:19:55;3.99;78.49
68177;DHT22;56478;50.982;7.032;2022-11-14T06:22:21;4.06;78.66
68177;DHT22;56478;50.982;7.032;2022-11-14T06:24:47;4.15;78.57
68177;DHT22;56478;50.982;7.032;2022-11-14T06:27:13;4.20;78.75
68177;DHT22;56478;50.982;7.032;2022-11-14T06:29:38;4.23;78.95
68177;DHT22;56478;50.982;7.032;2022-11-14T06:32:04;4.23;78.92
68177;DHT22;56478;50.982;7.032;2022-11-14T06:34:30;4.13;79.38
68177;DHT22;56478;50.982;7.032;2022-11-14T06:36:55;4.28;79.27
68177;DHT22;56478;50.982;7.032;2022-11-14T06:39:21;4.34;79.42
68177;DHT22;56478;50.982;7.032;2022-11-14T06:41:46;4.41;79.20
68177;DHT22;56478;50.982;7.032;2022-11-14T06:44:12;4.41;79.19
68177;DHT22;56478;50.982;7.032;2022-11-14T06:46:39;4.41;79.42
68177;DHT22;56478;50.982;7.032;2022-11-14T06:49:05;4.47;79.29
68177;DHT22;56478;50.982;7.032;2022-11-14T06:51:30;4.50;79.32
68177;DHT22;56478;50.982;7.032;2022-11-14T06:53:56;4.58;78.86
68177;DHT22;56478;50.982;7.032;2022-11-14T06:56:22;4.69;79.02
68177;DHT22;56478;50.982;7.032;2022-11-14T06:58:48;4.77;78.98
68177;DHT22;56478;50.982;7.032;2022-11-14T07:01:24;4.89;78.75
68177;DHT22;56478;50.982;7.032;2022-11-14T07:03:52;5.09;78.78
68177;DHT22;56478;50.982;7.032;2022-11-14T07:06:24;5.22;78.28
68177;DHT22;56478;50.982;7.032;2022-11-14T07:08:51;5.40;77.74
68177;DHT22;56478;50.982;7.032;2022-11-14T07:11:19;5.52;77.32
68177;DHT22;56478;50.982;7.032;2022-11-14T07:13:52;5.64;77.95
68177;DHT22;56478;50.982;7.032;2022-11-14T07:16:18;5.68;77.14
68177;DHT22;56478;50.982;7.032;2022-11-14T07:18:44;5.74;77.05
68177;DHT22;56478;50.982;7.032;2022-11-14T07:21:10;5.88;77.54
68177;DHT22;56478;50.982;7.032;2022-11-14T07:23:40;5.95;77.46
68177;DHT22;56478;50.982;7.032;2022-11-14T07:26:07;5.98;77.78
68177;DHT22;56478;50.982;7.032;2022-11-14T07:28:35;6.03;77.63
68177;DHT22;56478;50.982;7.032;2022-11-14T07:31:05;6.14;77.49
68177;DHT22;56478;50.982;7.032;2022-11-14T07:33:31;6.16;77.60
68177;DHT22;56478;50.982;7.032;2022-11-14T07:35:57;6.24;77.08
68177;DHT22;56478;50.982;7.032;2022-11-14T07:38:23;6.28;76.83
68177;DHT22;56478;50.982;7.032;2022-11-14T07:40:55;6.30;78.23
68177;DHT22;56478;50.982;7.032;2022-11-14T07:43:20;6.21;78.15
68177;DHT22;56478;50.982;7.032;2022-11-14T07:45:46;6.28;77.90
68177;DHT22;56478;50.982;7.032;2022-11-14T07:48:12;6.33;77.62
68177;DHT22;56478;50.982;7.032;2022-11-14T07:50:37;6.34;77.63
68177;DHT22;56478;50.982;7.032;2022-11-14T07:53:04;6.41;77.27
68177;DHT22;56478;50.982;7.032;2022-11-14T07:55:29;6.44;77.49
68177;DHT22;56478;50.982;7.032;2022-11-14T07:57:58;6.54;78.24
68177;DHT22;56478;50.982;7.032;2022-11-14T08:00:23;6.73;77.75
68177;DHT22;56478;50.982;7.032;2022-11-14T08:02:49;6.95;77.26
68177;DHT22;56478;50.982;7.032;2022-11-14T08:05:15;7.03;77.64
68177;DHT22;56478;50.982;7.032;2022-11-14T08:07:40;7.06;77.40
68177;DHT22;56478;50.982;7.032;2022-11-14T08:10:07;7.24;77.08
68177;DHT22;56478;50.982;7.032;2022-11-14T08:12:32;7.31;76.90
68177;DHT22;56478;50.982;7.032;2022-11-14T08:14:58;7.42;76.77
68177;DHT22;56478;50.982;7.032;2022-11-14T08:17:23;7.49;76.69
68177;DHT22;56478;50.982;7.032;2022-11-14T08:19:49;7.54;76.63
68177;DHT22;56478;50.982;7.032;2022-11-14T08:22:14;7.55;76.68
68177;DHT22;56478;50.982;7.032;2022-11-14T08:24:40;7.63;76.41
68177;DHT22;56478;50.982;7.032;2022-11-14T08:27:05;7.79;75.89
68177;DHT22;56478;50.982;7.032;2022-11-14T08:29:31;7.77;76.15
68177;DHT22;56478;50.982;7.032;2022-11-14T08:31:56;7.87;75.53
68177;DHT22;56478;50.982;7.032;2022-11-14T08:34:22;7.79;76.11
68177;DHT22;56478;50.982;7.032;2022-11-14T08:36:48;7.79;76.16
68177;DHT22;56478;50.982;7.032;2022-11-14T08:39:13;7.91;75.76
68177;DHT22;56478;50.982;7.032;2022-11-14T08:41:39;7.96;75.50
68177;DHT22;56478;50.982;7.032;2022-11-14T08:44:04;7.91;76.26
68177;DHT22;56478;50.982;7.032;2022-11-14T08:46:30;7.94;76.00
68177;DHT22;56478;50.982;7.032;2022-11-14T08:48:55;8.01;75.95
68177;DHT22;56478;50.982;7.032;2022-11-14T08:51:21;7.97;76.09
68177;DHT22;56478;50.982;7.032;2022-11-14T08:53:47;7.89;76.91
68177;DHT22;56478;50.982;7.032;2022-11-14T08:56:12;7.82;77.13
68177;DHT22;56478;50.982;7.032;2022-11-14T08:58:37;7.72;77.89
68177;DHT22;56478;50.982;7.032;2022-11-14T09:01:05;7.79;78.24
68177;DHT22;56478;50.982;7.032;2022-11-14T09:03:31;7.83;78.12
68177;DHT22;56478;50.982;7.032;2022-11-14T09:05:57;7.85;78.30
68177;DHT22;56478;50.982;7.032;2022-11-14T09:08:23;7.94;77.68
68177;DHT22;56478;50.982;7.032;2022-11-14T09:10:49;7.98;77.85
68177;DHT22;56478;50.982;7.032;2022-11-14T09:13:15;8.03;77.84
68177;DHT22;56478;50.982;7.032;2022-11-14T09:15:41;7.98;77.83
68177;DHT22;56478;50.982;7.032;2022-11-14T09:18:08;8.00;77.90
68177;DHT22;56478;50.982;7.032;2022-11-14T09:20:33;7.96;78.12
68177;DHT22;56478;50.982;7.032;2022-11-14T09:23:00;8.03;78.28
68177;DHT22;56478;50.982;7.032;2022-11-14T09:25:26;8.05;78.18
68177;DHT22;56478;50.982;7.032;2022-11-14T09:27:52;8.05;78.12
68177;DHT22;56478;50.982;7.032;2022-11-14T09:30:17;8.08;78.37
68177;DHT22;56478;50.982;7.032;2022-11-14T09:32:43;8.14;78.09
68177;DHT22;56478;50.982;7.032;2022-11-14T09:35:09;8.18;78.00
68177;DHT22;56478;50.982;7.032;2022-11-14T09:37:34;8.17;78.50
68177;DHT22;56478;50.982;7.032;2022-11-14T09:40:03;8.17;78.39
68177;DHT22;56478;50.982;7.032;2022-11-14T09:45:02;8.31;78.27
68177;DHT22;56478;50.982;7.032;2022-11-14T09:47:31;8.37;77.90
68177;DHT22;56478;50.982;7.032;2022-11-14T09:50:06;8.45;78.05
68177;DHT22;56478;50.982;7.032;2022-11-14T09:52:56;8.49;77.66
68177;DHT22;56478;50.982;7.032;2022-11-14T09:55:30;8.56;77.49
68177;DHT22;56478;50.982;7.032;2022-11-14T09:57:56;8.57;77.49
68177;DHT22;56478;50.982;7.032;2022-11-14T10:00:27;8.66;77.34
68177;DHT22;56478;50.982;7.032;2022-11-14T10:03:08;8.60;77.45
68177;DHT22;56478;50.982;7.032;2022-11-14T10:05:41;8.63;77.58
68177;DHT22;56478;50.982;7.032;2022-11-14T10:10:55;8.70;77.64
68177;DHT22;56478;50.982;7.032;2022-11-14T10:26:28;9.14;76.13
68177;DHT22;56478;50.982;7.032;2022-11-14T10:31:50;9.15;75.91
68177;DHT22;56478;50.982;7.032;2022-11-14T10:34:46;9.18;76.05
68177;DHT22;56478;50.982;7.032;2022-11-14T10:37:35;9.26;75.39
68177;DHT22;56478;50.982;7.032;2022-11-14T10:40:23;9.18;75.29
68177;DHT22;56478;50.982;7.032;2022-11-14T10:42:54;9.03;75.75
68177;DHT22;56478;50.982;7.032;2022-11-14T10:45:28;9.01;76.03
68177;DHT22;56478;50.982;7.032;2022-11-14T10:48:18;9.08;76.17
68177;DHT22;56478;50.982;7.032;2022-11-14T10:50:56;9.29;75.46
68177;DHT22;56478;50.982;7.032;2022-11-14T10:53:55;9.60;74.64
68177;DHT22;56478;50.982;7.032;2022-11-14T10:56:22;9.50;74.56
68177;DHT22;56478;50.982;7.032;2022-11-14T10:58:48;9.49;74.72
68177;DHT22;56478;50.982;7.032;2022-11-14T11:04:27;9.77;74.05
68177;DHT22;56478;50.982;7.032;2022-11-14T11:06:55;9.77;73.61
68177;DHT22;56478;50.982;7.032;2022-11-14T11:09:24;9.83;73.57
68177;DHT22;56478;50.982;7.032;2022-11-14T11:12:16;9.74;73.84
68177;DHT22;56478;50.982;7.032;2022-11-14T11:14:43;9.87;73.27
68177;DHT22;56478;50.982;7.032;2022-11-14T11:19:41;9.91;72.85
68177;DHT22;56478;50.982;7.032;2022-11-14T11:22:29;9.93;73.11
68177;DHT22;56478;50.982;7.032;2022-11-14T11:24:59;9.87;73.11
68177;DHT22;56478;50.982;7.032;2022-11-14T11:27:27;9.77;73.42
68177;DHT22;56478;50.982;7.032;2022-11-14T11:30:18;9.69;73.60
68177;DHT22;56478;50.982;7.032;2022-11-14T11:32:43;9.86;73.46
68177;DHT22;56478;50.982;7.032;2022-11-14T11:35:14;10.01;72.81
68177;DHT22;56478;50.982;7.032;2022-11-14T11:40:19;9.76;73.78
68177;DHT22;56478;50.982;7.032;2022-11-14T11:45:49;9.94;73.33
68177;DHT22;56478;50.982;7.032;2022-11-14T11:48:33;9.98;73.46
68177;DHT22;56478;50.982;7.032;2022-11-14T11:51:02;10.09;73.00
68177;DHT22;56478;50.982;7.032;2022-11-14T11:53:36;10.02;73.22
68177;DHT22;56478;50.982;7.032;2022-11-14T11:56:28;10.06;73.67
68177;DHT22;56478;50.982;7.032;2022-11-14T11:59:01;10.15;73.13
68177;DHT22;56478;50.982;7.032;2022-11-14T12:01:28;10.25;73.08
68177;DHT22;56478;50.982;7.032;2022-11-14T12:03:53;10.23;73.18
68177;DHT22;56478;50.982;7.032;2022-11-14T12:06:21;10.36;73.02
68177;DHT22;56478;50.982;7.032;2022-11-14T12:11:38;10.50;72.29
68177;DHT22;56478;50.982;7.032;2022-11-14T12:25:25;10.50;72.27
68177;DHT22;56478;50.982;7.032;2022-11-14T12:28:28;10.68;72.05
68177;DHT22;56478;50.982;7.032;2022-11-14T12:31:02;10.56;72.23
68177;DHT22;56478;50.982;7.032;2022-11-14T12:33:33;10.56;72.09
68177;DHT22;56478;50.982;7.032;2022-11-14T12:36:07;10.39;72.34
68177;DHT22;56478;50.982;7.032;2022-11-14T12:38:42;10.48;72.22
68177;DHT22;56478;50.982;7.032;2022-11-14T12:41:08;10.40;72.30
68177;DHT22;56478;50.982;7.032;2022-11-14T12:43:41;10.33;72.25
68177;DHT22;56478;50.982;7.032;2022-11-14T12:46:08;10.35;72.48
68177;DHT22;56478;50.982;7.032;2022-11-14T12:48:40;10.25;72.69
68177;DHT22;56478;50.982;7.032;2022-11-14T12:53:56;10.16;73.07
68177;DHT22;56478;50.982;7.032;2022-11-14T13:04:49;10.02;73.60
68177;DHT22;56478;50.982;7.032;2022-11-14T13:10:14;10.08;73.45
68177;DHT22;56478;50.982;7.032;2022-11-14T13:15:50;10.01;73.86
68177;DHT22;56478;50.982;7.032;2022-11-14T13:18:35;9.98;73.72
68177;DHT22;56478;50.982;7.032;2022-11-14T13:21:32;9.97;73.94
68177;DHT22;56478;50.982;7.032;2022-11-14T13:24:14;9.99;73.93
68177;DHT22;56478;50.982;7.032;2022-11-14T13:26:48;9.95;73.94
68177;DHT22;56478;50.982;7.032;2022-11-14T13:32:08;9.86;74.33
68177;DHT22;56478;50.982;7.032;2022-11-14T13:34:57;9.98;74.16
68177;DHT22;56478;50.982;7.032;2022-11-14T13:40:42;10.04;73.99
68177;DHT22;56478;50.982;7.032;2022-11-14T13:43:21;9.99;74.11
68177;DHT22;56478;50.982;7.032;2022-11-14T13:46:04;9.99;74.28
68177;DHT22;56478;50.982;7.032;2022-11-14T13:51:19;10.09;73.78
68177;DHT22;56478;50.982;7.032;2022-11-14T13:53:46;10.01;74.08
68177;DHT22;56478;50.982;7.032;2022-11-14T13:59:53;9.97;74.31
68177;DHT22;56478;50.982;7.032;2022-11-14T14:05:12;10.09;74.18
68177;DHT22;56478;50.982;7.032;2022-11-14T14:15:51;10.18;74.04
68177;DHT22;56478;50.982;7.032;2022-11-14T14:21:34;10.01;74.42
68177;DHT22;56478;50.982;7.032;2022-11-14T14:26:55;9.97;74.58
68177;DHT22;56478;50.982;7.032;2022-11-14T14:29:32;9.99;74.64
68177;DHT22;56478;50.982;7.032;2022-11-14T14:32:11;9.95;74.61
68177;DHT22;56478;50.982;7.032;2022-11-14T14:34:37;9.93;74.98
68177;DHT22;56478;50.982;7.032;2022-11-14T14:37:23;9.88;75.02
68177;DHT22;56478;50.982;7.032;2022-11-14T14:40:00;9.88;75.10
68177;DHT22;56478;50.982;7.032;2022-11-14T14:42:38;9.91;75.10
68177;DHT22;56478;50.982;7.032;2022-11-14T14:45:13;9.97;75.07
68177;DHT22;56478;50.982;7.032;2022-11-14T14:47:40;9.97;75.29
68177;DHT22;56478;50.982;7.032;2022-11-14T14:50:19;9.95;75.11
68177;DHT22;56478;50.982;7.032;2022-11-14T14:52:45;10.02;75.08
68177;DHT22;56478;50.982;7.032;2022-11-14T14:55:49;9.94;75.62
68177;DHT22;56478;50.982;7.032;2022-11-14T15:01:03;9.90;75.87
68177;DHT22;56478;50.982;7.032;2022-11-14T15:03:35;9.93;75.96
68177;DHT22;56478;50.982;7.032;2022-11-14T15:06:05;9.88;76.04
68177;DHT22;56478;50.982;7.032;2022-11-14T15:08:34;9.91;75.95
68177;DHT22;56478;50.982;7.032;2022-11-14T15:11:01;9.86;76.05
68177;DHT22;56478;50.982;7.032;2022-11-14T15:13:28;9.86;76.22
68177;DHT22;56478;50.982;7.032;2022-11-14T15:15:55;9.84;76.17
68177;DHT22;56478;50.982;7.032;2022-11-14T15:18:30;9.78;76.32
68177;DHT22;56478;50.982;7.032;2022-11-14T15:21:33;9.78;76.10
68177;DHT22;56478;50.982;7.032;2022-11-14T15:26:45;9.73;76.24
68177;DHT22;56478;50.982;7.032;2022-11-14T15:29:25;9.60;76.82
68177;DHT22;56478;50.982;7.032;2022-11-14T15:32:00;9.70;76.48
68177;DHT22;56478;50.982;7.032;2022-11-14T15:39:39;9.73;76.32
68177;DHT22;56478;50.982;7.032;2022-11-14T15:44:49;9.66;76.43
68177;DHT22;56478;50.982;7.032;2022-11-14T15:47:23;9.71;76.43
68177;DHT22;56478;50.982;7.032;2022-11-14T15:52:35;9.76;76.23
68177;DHT22;56478;50.982;7.032;2022-11-14T15:55:03;9.71;76.38
68177;DHT22;56478;50.982;7.032;2022-11-14T15:57:30;9.74;76.25
68177;DHT22;56478;50.982;7.032;2022-11-14T15:59:56;9.76;76.19
68177;DHT22;56478;50.982;7.032;2022-11-14T16:02:25;9.69;76.51
68177;DHT22;56478;50.982;7.032;2022-11-14T16:04:54;9.73;76.35
68177;DHT22;56478;50.982;7.032;2022-11-14T16:07:20;9.67;76.78
68177;DHT22;56478;50.982;7.032;2022-11-14T16:09:46;9.77;76.32
68177;DHT22;56478;50.982;7.032;2022-11-14T16:12:12;9.77;76.42
68177;DHT22;56478;50.982;7.032;2022-11-14T16:14:37;9.81;76.30
68177;DHT22;56478;50.982;7.032;2022-11-14T16:17:03;9.83;76.13
68177;DHT22;56478;50.982;7.032;2022-11-14T16:19:30;9.84;76.23
68177;DHT22;56478;50.982;7.032;2022-11-14T16:21:59;9.78;76.67
68177;DHT22;56478;50.982;7.032;2022-11-14T16:24:27;9.71;76.88
68177;DHT22;56478;50.982;7.032;2022-11-14T16:26:53;9.77;76.80
68177;DHT22;56478;50.982;7.032;2022-11-14T16:29:19;9.73;76.96
68177;DHT22;56478;50.982;7.032;2022-11-14T16:31:44;9.66;77.47
68177;DHT22;56478;50.982;7.032;2022-11-14T16:34:22;9.70;77.14
68177;DHT22;56478;50.982;7.032;2022-11-14T16:36:47;9.69;77.52
68177;DHT22;56478;50.982;7.032;2022-11-14T16:39:15;9.74;77.38
68177;DHT22;56478;50.982;7.032;2022-11-14T16:41:41;9.76;77.36
68177;DHT22;56478;50.982;7.032;2022-11-14T16:44:12;9.74;77.39
68177;DHT22;56478;50.982;7.032;2022-11-14T16:46:39;9.71;77.68
68177;DHT22;56478;50.982;7.032;2022-11-14T16:49:05;9.69;77.95
68177;DHT22;56478;50.982;7.032;2022-11-14T16:51:31;9.80;77.47
68177;DHT22;56478;50.982;7.032;2022-11-14T16:53:56;9.78;77.71
68177;DHT22;56478;50.982;7.032;2022-11-14T16:56:22;9.73;77.96
68177;DHT22;56478;50.982;7.032;2022-11-14T16:58:52;9.71;78.13
68177;DHT22;56478;50.982;7.032;2022-11-14T17:01:18;9.70;78.25
68177;DHT22;56478;50.982;7.032;2022-11-14T17:03:43;9.69;78.52
68177;DHT22;56478;50.982;7.032;2022-11-14T17:06:09;9.67;78.60
68177;DHT22;56478;50.982;7.032;2022-11-14T17:08:35;9.60;78.88
68177;DHT22;56478;50.982;7.032;2022-11-14T17:11:05;9.64;78.86
68177;DHT22;56478;50.982;7.032;2022-11-14T17:13:31;9.71;78.78
68177;DHT22;56478;50.982;7.032;2022-11-14T17:16:00;9.64;78.96
68177;DHT22;56478;50.982;7.032;2022-11-14T17:18:26;9.73;78.80
68177;DHT22;56478;50.982;7.032;2022-11-14T17:20:51;9.70;78.80
68177;DHT22;56478;50.982;7.032;2022-11-14T17:23:18;9.66;79.13
68177;DHT22;56478;50.982;7.032;2022-11-14T17:25:43;9.69;79.01
68177;DHT22;56478;50.982;7.032;2022-11-14T17:28:09;9.60;79.31
68177;DHT22;56478;50.982;7.032;2022-11-14T17:30:39;9.67;79.28
68177;DHT22;56478;50.982;7.032;2022-11-14T17:33:05;9.74;79.05
68177;DHT22;56478;50.982;7.032;2022-11-14T17:35:30;9.76;79.08
68177;DHT22;56478;50.982;7.032;2022-11-14T17:37:58;9.71;79.33
68177;DHT22;56478;50.982;7.032;2022-11-14T17:40:24;9.63;79.76
68177;DHT22;56478;50.982;7.032;2022-11-14T17:42:49;9.64;79.77